sensor_id;sensor_type;location;lat;lon;timestamp;P1;durP1;ratioP1;P2;durP2;ratioP2
29240;SDS011;16268;49.880;8.648;2022-09-11T00:01:27;5.07;;;2.72;;
29240;SDS011;16268;49.880;8.648;2022-09-11T00:03:53;6.40;;;3.22;;
29240;SDS011;16268;49.880;8.648;2022-09-11T00:06:20;4.78;;;3.00;;
29240;SDS011;16268;49.880;8.648;2022-09-11T00:08:46;5.50;;;3.17;;
29240;SDS011;16268;49.880;8.648;2022-09-11T00:11:17;6.90;;;3.35;;
29240;SDS011;16268;49.880;8.648;2022-09-11T00:13:46;6.47;;;3.05;;
29240;SDS011;16268;49.880;8.648;2022-09-11T00:18:51;7.07;;;3.10;;
29240;SDS011;16268;49.880;8.648;2022-09-11T00:21:18;5.60;;;3.00;;
29240;SDS011;16268;49.880;8.648;2022-09-11T00:23:44;6.50;;;3.30;;
29240;SDS011;16268;49.880;8.648;2022-09-11T00:26:12;6.72;;;3.70;;
29240;SDS011;16268;49.880;8.648;2022-09-11T00:28:38;6.00;;;3.55;;
29240;SDS011;16268;49.880;8.648;2022-09-11T00:33:31;6.90;;;3.22;;
29240;SDS011;16268;49.880;8.648;2022-09-11T00:35:59;8.10;;;3.55;;
29240;SDS011;16268;49.880;8.648;2022-09-11T00:38:28;6.32;;;3.83;;
29240;SDS011;16268;49.880;8.648;2022-09-11T00:40:56;6.38;;;4.10;;
29240;SDS011;16268;49.880;8.648;2022-09-11T00:43:23;7.05;;;4.30;;
29240;SDS011;16268;49.880;8.648;2022-09-11T00:45:59;6.38;;;3.95;;
29240;SDS011;16268;49.880;8.648;2022-09-11T00:48:29;6.63;;;4.00;;
29240;SDS011;16268;49.880;8.648;2022-09-11T00:50:58;6.68;;;4.50;;
29240;SDS011;16268;49.880;8.648;2022-09-11T00:53:28;5.80;;;3.75;;
29240;SDS011;16268;49.880;8.648;2022-09-11T00:55:58;8.45;;;3.78;;
29240;SDS011;16268;49.880;8.648;2022-09-11T00:58:28;5.53;;;3.50;;
29240;SDS011;16268;49.880;8.648;2022-09-11T01:00:57;5.55;;;3.70;;
29240;SDS011;16268;49.880;8.648;2022-09-11T01:03:24;6.93;;;3.80;;
29240;SDS011;16268;49.880;8.648;2022-09-11T01:05:50;6.70;;;4.20;;
29240;SDS011;16268;49.880;8.648;2022-09-11T01:08:18;7.60;;;4.30;;
29240;SDS011;16268;49.880;8.648;2022-09-11T01:13:50;6.28;;;3.85;;
29240;SDS011;16268;49.880;8.648;2022-09-11T01:19:24;8.38;;;4.13;;
29240;SDS011;16268;49.880;8.648;2022-09-11T01:21:59;6.97;;;4.13;;
29240;SDS011;16268;49.880;8.648;2022-09-11T01:24:59;7.30;;;4.38;;
29240;SDS011;16268;49.880;8.648;2022-09-11T01:30:12;6.97;;;4.80;;
29240;SDS011;16268;49.880;8.648;2022-09-11T01:33:04;6.90;;;4.35;;
29240;SDS011;16268;49.880;8.648;2022-09-11T01:38:28;8.38;;;5.40;;
29240;SDS011;16268;49.880;8.648;2022-09-11T01:41:10;8.88;;;6.03;;
29240;SDS011;16268;49.880;8.648;2022-09-11T01:43:42;7.35;;;5.70;;
29240;SDS011;16268;49.880;8.648;2022-09-11T01:46:31;9.50;;;6.45;;
29240;SDS011;16268;49.880;8.648;2022-09-11T01:49:03;7.35;;;6.13;;
29240;SDS011;16268;49.880;8.648;2022-09-11T01:51:36;10.00;;;7.03;;
29240;SDS011;16268;49.880;8.648;2022-09-11T01:54:06;10.00;;;6.88;;
29240;SDS011;16268;49.880;8.648;2022-09-11T01:56:44;9.73;;;7.40;;
29240;SDS011;16268;49.880;8.648;2022-09-11T01:59:14;8.63;;;7.45;;
29240;SDS011;16268;49.880;8.648;2022-09-11T02:01:45;8.88;;;7.55;;
29240;SDS011;16268;49.880;8.648;2022-09-11T02:04:29;10.75;;;7.70;;
29240;SDS011;16268;49.880;8.648;2022-09-11T02:07:20;10.05;;;7.85;;
29240;SDS011;16268;49.880;8.648;2022-09-11T02:09:54;11.30;;;8.48;;
29240;SDS011;16268;49.880;8.648;2022-09-11T02:12:25;11.65;;;8.68;;
29240;SDS011;16268;49.880;8.648;2022-09-11T02:14:55;11.80;;;8.70;;
29240;SDS011;16268;49.880;8.648;2022-09-11T02:20:18;11.05;;;9.02;;
29240;SDS011;16268;49.880;8.648;2022-09-11T02:22:45;12.93;;;9.45;;
29240;SDS011;16268;49.880;8.648;2022-09-11T02:25:11;11.63;;;9.55;;
29240;SDS011;16268;49.880;8.648;2022-09-11T02:27:37;12.00;;;9.75;;
29240;SDS011;16268;49.880;8.648;2022-09-11T02:30:04;11.32;;;9.88;;
29240;SDS011;16268;49.880;8.648;2022-09-11T02:32:30;11.35;;;10.15;;
29240;SDS011;16268;49.880;8.648;2022-09-11T02:35:00;12.30;;;9.20;;
29240;SDS011;16268;49.880;8.648;2022-09-11T02:42:57;12.52;;;10.75;;
29240;SDS011;16268;49.880;8.648;2022-09-11T02:51:09;13.35;;;11.05;;
29240;SDS011;16268;49.880;8.648;2022-09-11T02:54:02;15.07;;;10.80;;
29240;SDS011;16268;49.880;8.648;2022-09-11T02:59:31;12.15;;;9.35;;
29240;SDS011;16268;49.880;8.648;2022-09-11T03:02:01;10.73;;;8.75;;
29240;SDS011;16268;49.880;8.648;2022-09-11T03:04:27;12.05;;;7.72;;
29240;SDS011;16268;49.880;8.648;2022-09-11T03:06:53;11.70;;;8.85;;
29240;SDS011;16268;49.880;8.648;2022-09-11T03:09:20;11.10;;;8.50;;
29240;SDS011;16268;49.880;8.648;2022-09-11T03:11:46;13.80;;;8.68;;
29240;SDS011;16268;49.880;8.648;2022-09-11T03:14:12;10.38;;;8.65;;
29240;SDS011;16268;49.880;8.648;2022-09-11T03:16:38;12.13;;;9.40;;
29240;SDS011;16268;49.880;8.648;2022-09-11T03:19:05;14.13;;;10.88;;
29240;SDS011;16268;49.880;8.648;2022-09-11T03:21:31;14.35;;;11.88;;
29240;SDS011;16268;49.880;8.648;2022-09-11T03:23:57;17.50;;;12.73;;
29240;SDS011;16268;49.880;8.648;2022-09-11T03:26:23;15.63;;;13.02;;
29240;SDS011;16268;49.880;8.648;2022-09-11T03:28:49;14.73;;;12.93;;
29240;SDS011;16268;49.880;8.648;2022-09-11T03:31:15;13.93;;;12.43;;
29240;SDS011;16268;49.880;8.648;2022-09-11T03:33:41;16.38;;;12.60;;
29240;SDS011;16268;49.880;8.648;2022-09-11T03:36:06;15.13;;;12.63;;
29240;SDS011;16268;49.880;8.648;2022-09-11T03:38:33;17.15;;;12.88;;
29240;SDS011;16268;49.880;8.648;2022-09-11T03:40:59;16.00;;;13.43;;
29240;SDS011;16268;49.880;8.648;2022-09-11T03:43:26;15.30;;;13.70;;
29240;SDS011;16268;49.880;8.648;2022-09-11T03:45:52;15.80;;;13.52;;
29240;SDS011;16268;49.880;8.648;2022-09-11T03:48:17;16.15;;;13.75;;
29240;SDS011;16268;49.880;8.648;2022-09-11T03:50:43;16.42;;;14.50;;
29240;SDS011;16268;49.880;8.648;2022-09-11T03:53:09;17.08;;;14.73;;
29240;SDS011;16268;49.880;8.648;2022-09-11T03:55:35;18.52;;;15.48;;
29240;SDS011;16268;49.880;8.648;2022-09-11T03:58:01;16.77;;;14.77;;
29240;SDS011;16268;49.880;8.648;2022-09-11T04:00:27;16.75;;;14.85;;
29240;SDS011;16268;49.880;8.648;2022-09-11T04:02:53;17.48;;;15.68;;
29240;SDS011;16268;49.880;8.648;2022-09-11T04:05:20;17.90;;;15.60;;
29240;SDS011;16268;49.880;8.648;2022-09-11T04:07:48;18.38;;;15.00;;
29240;SDS011;16268;49.880;8.648;2022-09-11T04:10:13;19.23;;;16.27;;
29240;SDS011;16268;49.880;8.648;2022-09-11T04:12:39;20.25;;;17.30;;
29240;SDS011;16268;49.880;8.648;2022-09-11T04:15:06;19.02;;;16.10;;
29240;SDS011;16268;49.880;8.648;2022-09-11T04:17:31;19.27;;;17.10;;
29240;SDS011;16268;49.880;8.648;2022-09-11T04:19:57;21.58;;;17.25;;
29240;SDS011;16268;49.880;8.648;2022-09-11T04:22:23;19.33;;;17.23;;
29240;SDS011;16268;49.880;8.648;2022-09-11T04:24:48;18.95;;;16.95;;
29240;SDS011;16268;49.880;8.648;2022-09-11T04:27:14;19.85;;;17.73;;
29240;SDS011;16268;49.880;8.648;2022-09-11T04:29:39;22.80;;;18.40;;
29240;SDS011;16268;49.880;8.648;2022-09-11T04:32:05;21.42;;;17.83;;
29240;SDS011;16268;49.880;8.648;2022-09-11T04:34:30;22.15;;;18.73;;
29240;SDS011;16268;49.880;8.648;2022-09-11T04:36:56;20.38;;;17.88;;
29240;SDS011;16268;49.880;8.648;2022-09-11T04:39:21;20.38;;;18.17;;
29240;SDS011;16268;49.880;8.648;2022-09-11T04:41:47;21.70;;;19.35;;
29240;SDS011;16268;49.880;8.648;2022-09-11T04:44:13;21.35;;;19.05;;
29240;SDS011;16268;49.880;8.648;2022-09-11T04:46:39;21.67;;;19.08;;
29240;SDS011;16268;49.880;8.648;2022-09-11T04:49:05;21.98;;;18.15;;
29240;SDS011;16268;49.880;8.648;2022-09-11T04:51:33;21.77;;;19.45;;
29240;SDS011;16268;49.880;8.648;2022-09-11T04:54:00;21.27;;;18.63;;
29240;SDS011;16268;49.880;8.648;2022-09-11T04:56:27;22.27;;;18.35;;
29240;SDS011;16268;49.880;8.648;2022-09-11T04:58:55;22.27;;;18.77;;
29240;SDS011;16268;49.880;8.648;2022-09-11T05:01:26;22.30;;;19.90;;
29240;SDS011;16268;49.880;8.648;2022-09-11T05:03:53;22.67;;;19.77;;
29240;SDS011;16268;49.880;8.648;2022-09-11T05:06:20;24.70;;;19.80;;
29240;SDS011;16268;49.880;8.648;2022-09-11T05:08:47;23.35;;;19.38;;
29240;SDS011;16268;49.880;8.648;2022-09-11T05:11:13;23.80;;;19.83;;
29240;SDS011;16268;49.880;8.648;2022-09-11T05:13:40;24.42;;;19.65;;
29240;SDS011;16268;49.880;8.648;2022-09-11T05:16:08;22.73;;;19.25;;
29240;SDS011;16268;49.880;8.648;2022-09-11T05:18:38;23.98;;;19.25;;
29240;SDS011;16268;49.880;8.648;2022-09-11T05:21:10;22.88;;;19.50;;
29240;SDS011;16268;49.880;8.648;2022-09-11T05:23:37;21.10;;;18.83;;
29240;SDS011;16268;49.880;8.648;2022-09-11T05:26:03;24.15;;;19.33;;
29240;SDS011;16268;49.880;8.648;2022-09-11T05:28:30;22.45;;;19.30;;
29240;SDS011;16268;49.880;8.648;2022-09-11T05:30:57;25.35;;;20.00;;
29240;SDS011;16268;49.880;8.648;2022-09-11T05:33:23;24.17;;;20.00;;
29240;SDS011;16268;49.880;8.648;2022-09-11T05:35:51;24.25;;;18.90;;
29240;SDS011;16268;49.880;8.648;2022-09-11T05:38:18;21.05;;;17.65;;
29240;SDS011;16268;49.880;8.648;2022-09-11T05:40:50;23.13;;;17.85;;
29240;SDS011;16268;49.880;8.648;2022-09-11T05:43:16;21.60;;;18.77;;
29240;SDS011;16268;49.880;8.648;2022-09-11T05:45:43;21.27;;;18.05;;
29240;SDS011;16268;49.880;8.648;2022-09-11T05:48:17;22.15;;;18.98;;
29240;SDS011;16268;49.880;8.648;2022-09-11T05:50:50;22.10;;;19.48;;
29240;SDS011;16268;49.880;8.648;2022-09-11T05:53:19;22.92;;;19.13;;
29240;SDS011;16268;49.880;8.648;2022-09-11T05:55:45;21.38;;;18.33;;
29240;SDS011;16268;49.880;8.648;2022-09-11T05:58:12;23.65;;;19.35;;
29240;SDS011;16268;49.880;8.648;2022-09-11T06:00:38;23.02;;;19.88;;
29240;SDS011;16268;49.880;8.648;2022-09-11T06:03:04;21.55;;;19.25;;
29240;SDS011;16268;49.880;8.648;2022-09-11T06:05:31;23.48;;;19.75;;
29240;SDS011;16268;49.880;8.648;2022-09-11T06:07:57;23.42;;;19.80;;
29240;SDS011;16268;49.880;8.648;2022-09-11T06:10:23;22.40;;;19.88;;
29240;SDS011;16268;49.880;8.648;2022-09-11T06:12:48;23.83;;;20.13;;
29240;SDS011;16268;49.880;8.648;2022-09-11T06:15:14;23.40;;;19.58;;
29240;SDS011;16268;49.880;8.648;2022-09-11T06:17:39;24.33;;;19.63;;
29240;SDS011;16268;49.880;8.648;2022-09-11T06:20:05;24.77;;;20.02;;
29240;SDS011;16268;49.880;8.648;2022-09-11T06:22:32;23.73;;;19.73;;
29240;SDS011;16268;49.880;8.648;2022-09-11T06:25:00;22.97;;;19.40;;
29240;SDS011;16268;49.880;8.648;2022-09-11T06:27:25;23.13;;;19.65;;
29240;SDS011;16268;49.880;8.648;2022-09-11T06:29:52;21.88;;;19.20;;
29240;SDS011;16268;49.880;8.648;2022-09-11T06:32:19;22.35;;;18.00;;
29240;SDS011;16268;49.880;8.648;2022-09-11T06:34:45;22.85;;;18.70;;
29240;SDS011;16268;49.880;8.648;2022-09-11T06:37:10;20.63;;;17.58;;
29240;SDS011;16268;49.880;8.648;2022-09-11T06:39:36;22.15;;;18.58;;
29240;SDS011;16268;49.880;8.648;2022-09-11T06:42:02;21.10;;;18.42;;
29240;SDS011;16268;49.880;8.648;2022-09-11T06:44:27;22.40;;;19.38;;
29240;SDS011;16268;49.880;8.648;2022-09-11T06:46:53;19.55;;;16.92;;
29240;SDS011;16268;49.880;8.648;2022-09-11T06:49:20;20.17;;;16.95;;
29240;SDS011;16268;49.880;8.648;2022-09-11T06:51:46;20.50;;;16.33;;
29240;SDS011;16268;49.880;8.648;2022-09-11T06:54:11;16.73;;;14.70;;
29240;SDS011;16268;49.880;8.648;2022-09-11T06:56:37;16.40;;;14.25;;
29240;SDS011;16268;49.880;8.648;2022-09-11T06:59:03;16.08;;;12.73;;
29240;SDS011;16268;49.880;8.648;2022-09-11T07:01:28;14.80;;;11.70;;
29240;SDS011;16268;49.880;8.648;2022-09-11T07:03:54;13.98;;;11.02;;
29240;SDS011;16268;49.880;8.648;2022-09-11T07:06:26;12.38;;;10.07;;
29240;SDS011;16268;49.880;8.648;2022-09-11T07:08:55;13.15;;;10.52;;
29240;SDS011;16268;49.880;8.648;2022-09-11T07:11:30;11.82;;;10.15;;
29240;SDS011;16268;49.880;8.648;2022-09-11T07:13:57;12.63;;;9.93;;
29240;SDS011;16268;49.880;8.648;2022-09-11T07:16:24;11.70;;;10.32;;
29240;SDS011;16268;49.880;8.648;2022-09-11T07:18:50;13.20;;;10.32;;
29240;SDS011;16268;49.880;8.648;2022-09-11T07:21:19;10.95;;;9.80;;
29240;SDS011;16268;49.880;8.648;2022-09-11T07:23:47;13.60;;;10.88;;
29240;SDS011;16268;49.880;8.648;2022-09-11T07:26:15;11.38;;;9.80;;
29240;SDS011;16268;49.880;8.648;2022-09-11T07:28:41;10.98;;;8.82;;
29240;SDS011;16268;49.880;8.648;2022-09-11T07:31:08;10.90;;;8.55;;
29240;SDS011;16268;49.880;8.648;2022-09-11T07:33:40;11.68;;;8.70;;
29240;SDS011;16268;49.880;8.648;2022-09-11T07:36:17;10.00;;;8.38;;
29240;SDS011;16268;49.880;8.648;2022-09-11T07:38:46;8.85;;;7.28;;
29240;SDS011;16268;49.880;8.648;2022-09-11T07:41:14;11.48;;;8.55;;
29240;SDS011;16268;49.880;8.648;2022-09-11T07:43:41;10.23;;;8.00;;
29240;SDS011;16268;49.880;8.648;2022-09-11T07:46:09;13.35;;;9.63;;
29240;SDS011;16268;49.880;8.648;2022-09-11T07:48:36;11.90;;;9.45;;
29240;SDS011;16268;49.880;8.648;2022-09-11T07:51:04;12.05;;;9.50;;
29240;SDS011;16268;49.880;8.648;2022-09-11T07:53:37;12.60;;;9.98;;
29240;SDS011;16268;49.880;8.648;2022-09-11T07:56:08;12.57;;;9.57;;
29240;SDS011;16268;49.880;8.648;2022-09-11T07:58:37;14.20;;;9.73;;
29240;SDS011;16268;49.880;8.648;2022-09-11T08:01:07;13.23;;;10.98;;
29240;SDS011;16268;49.880;8.648;2022-09-11T08:03:35;14.65;;;11.63;;
29240;SDS011;16268;49.880;8.648;2022-09-11T08:06:01;13.55;;;11.30;;
29240;SDS011;16268;49.880;8.648;2022-09-11T08:08:32;14.15;;;11.30;;
29240;SDS011;16268;49.880;8.648;2022-09-11T08:11:02;15.75;;;12.35;;
29240;SDS011;16268;49.880;8.648;2022-09-11T08:13:30;14.90;;;11.80;;
29240;SDS011;16268;49.880;8.648;2022-09-11T08:15:57;16.13;;;12.82;;
29240;SDS011;16268;49.880;8.648;2022-09-11T08:18:22;13.30;;;11.90;;
29240;SDS011;16268;49.880;8.648;2022-09-11T08:20:48;14.95;;;12.48;;
29240;SDS011;16268;49.880;8.648;2022-09-11T08:23:13;16.35;;;13.02;;
29240;SDS011;16268;49.880;8.648;2022-09-11T08:25:39;19.05;;;13.88;;
29240;SDS011;16268;49.880;8.648;2022-09-11T08:28:06;17.20;;;12.38;;
29240;SDS011;16268;49.880;8.648;2022-09-11T08:30:31;16.38;;;13.45;;
29240;SDS011;16268;49.880;8.648;2022-09-11T08:32:57;17.58;;;12.57;;
29240;SDS011;16268;49.880;8.648;2022-09-11T08:35:24;15.15;;;12.13;;
29240;SDS011;16268;49.880;8.648;2022-09-11T08:37:50;13.95;;;11.25;;
29240;SDS011;16268;49.880;8.648;2022-09-11T08:40:18;15.50;;;12.23;;
29240;SDS011;16268;49.880;8.648;2022-09-11T08:42:44;14.15;;;11.68;;
29240;SDS011;16268;49.880;8.648;2022-09-11T08:45:17;14.43;;;11.13;;
29240;SDS011;16268;49.880;8.648;2022-09-11T08:47:51;14.80;;;11.40;;
29240;SDS011;16268;49.880;8.648;2022-09-11T08:50:24;12.45;;;10.75;;
29240;SDS011;16268;49.880;8.648;2022-09-11T08:52:51;12.20;;;10.07;;
29240;SDS011;16268;49.880;8.648;2022-09-11T08:55:27;14.60;;;11.35;;
29240;SDS011;16268;49.880;8.648;2022-09-11T09:04:05;14.70;;;11.73;;
29240;SDS011;16268;49.880;8.648;2022-09-11T09:07:17;15.35;;;12.07;;
29240;SDS011;16268;49.880;8.648;2022-09-11T09:12:57;15.93;;;12.43;;
29240;SDS011;16268;49.880;8.648;2022-09-11T09:15:54;16.67;;;12.53;;
29240;SDS011;16268;49.880;8.648;2022-09-11T09:18:41;15.57;;;12.27;;
29240;SDS011;16268;49.880;8.648;2022-09-11T09:21:22;17.17;;;14.07;;
29240;SDS011;16268;49.880;8.648;2022-09-11T09:23:54;16.80;;;13.20;;
29240;SDS011;16268;49.880;8.648;2022-09-11T09:26:20;16.08;;;12.95;;
29240;SDS011;16268;49.880;8.648;2022-09-11T09:28:53;18.45;;;14.90;;
29240;SDS011;16268;49.880;8.648;2022-09-11T09:31:25;17.70;;;14.25;;
29240;SDS011;16268;49.880;8.648;2022-09-11T09:33:58;16.95;;;14.30;;
29240;SDS011;16268;49.880;8.648;2022-09-11T09:36:35;15.68;;;12.57;;
29240;SDS011;16268;49.880;8.648;2022-09-11T09:39:10;13.77;;;11.45;;
29240;SDS011;16268;49.880;8.648;2022-09-11T09:47:22;14.95;;;11.68;;
29240;SDS011;16268;49.880;8.648;2022-09-11T09:49:47;15.60;;;13.10;;
29240;SDS011;16268;49.880;8.648;2022-09-11T09:52:21;15.48;;;12.30;;
29240;SDS011;16268;49.880;8.648;2022-09-11T09:54:57;15.43;;;11.23;;
29240;SDS011;16268;49.880;8.648;2022-09-11T09:57:25;13.43;;;11.65;;
29240;SDS011;16268;49.880;8.648;2022-09-11T10:07:52;16.40;;;12.80;;
29240;SDS011;16268;49.880;8.648;2022-09-11T10:12:49;16.67;;;12.80;;
29240;SDS011;16268;49.880;8.648;2022-09-11T10:15:19;18.05;;;12.77;;
29240;SDS011;16268;49.880;8.648;2022-09-11T10:17:46;15.70;;;12.50;;
29240;SDS011;16268;49.880;8.648;2022-09-11T10:20:18;15.38;;;11.32;;
29240;SDS011;16268;49.880;8.648;2022-09-11T10:22:51;15.00;;;10.57;;
29240;SDS011;16268;49.880;8.648;2022-09-11T10:25:22;16.50;;;11.65;;
29240;SDS011;16268;49.880;8.648;2022-09-11T10:27:58;13.77;;;10.98;;
29240;SDS011;16268;49.880;8.648;2022-09-11T10:30:36;16.55;;;11.13;;
29240;SDS011;16268;49.880;8.648;2022-09-11T10:33:05;14.20;;;11.43;;
29240;SDS011;16268;49.880;8.648;2022-09-11T10:36:02;16.05;;;11.88;;
29240;SDS011;16268;49.880;8.648;2022-09-11T10:38:32;14.48;;;11.18;;
29240;SDS011;16268;49.880;8.648;2022-09-11T10:43:46;16.42;;;11.55;;
29240;SDS011;16268;49.880;8.648;2022-09-11T10:46:33;14.10;;;11.30;;
29240;SDS011;16268;49.880;8.648;2022-09-11T10:51:30;13.45;;;9.98;;
29240;SDS011;16268;49.880;8.648;2022-09-11T10:56:38;12.07;;;9.15;;
29240;SDS011;16268;49.880;8.648;2022-09-11T10:59:19;11.55;;;9.23;;
29240;SDS011;16268;49.880;8.648;2022-09-11T11:01:50;12.48;;;9.38;;
29240;SDS011;16268;49.880;8.648;2022-09-11T11:04:16;15.77;;;11.65;;
29240;SDS011;16268;49.880;8.648;2022-09-11T11:06:58;15.20;;;10.45;;
29240;SDS011;16268;49.880;8.648;2022-09-11T11:09:37;16.13;;;10.88;;
29240;SDS011;16268;49.880;8.648;2022-09-11T11:28:46;12.48;;;9.85;;
29240;SDS011;16268;49.880;8.648;2022-09-11T11:37:09;13.88;;;9.70;;
29240;SDS011;16268;49.880;8.648;2022-09-11T11:44:47;13.88;;;10.02;;
29240;SDS011;16268;49.880;8.648;2022-09-11T11:47:28;13.68;;;10.07;;
29240;SDS011;16268;49.880;8.648;2022-09-11T11:52:55;12.20;;;8.80;;
29240;SDS011;16268;49.880;8.648;2022-09-11T12:00:49;14.63;;;10.07;;
29240;SDS011;16268;49.880;8.648;2022-09-11T12:03:22;11.98;;;8.43;;
29240;SDS011;16268;49.880;8.648;2022-09-11T12:06:03;13.20;;;9.18;;
29240;SDS011;16268;49.880;8.648;2022-09-11T12:08:31;12.00;;;8.00;;
29240;SDS011;16268;49.880;8.648;2022-09-11T12:11:04;15.65;;;10.85;;
29240;SDS011;16268;49.880;8.648;2022-09-11T12:13:35;11.68;;;8.55;;
29240;SDS011;16268;49.880;8.648;2022-09-11T12:16:15;14.45;;;9.70;;
29240;SDS011;16268;49.880;8.648;2022-09-11T12:28:46;14.63;;;8.40;;
29240;SDS011;16268;49.880;8.648;2022-09-11T12:31:16;12.07;;;8.50;;
29240;SDS011;16268;49.880;8.648;2022-09-11T12:36:17;11.70;;;7.90;;
29240;SDS011;16268;49.880;8.648;2022-09-11T12:38:49;10.15;;;7.35;;
29240;SDS011;16268;49.880;8.648;2022-09-11T12:41:24;10.35;;;7.53;;
29240;SDS011;16268;49.880;8.648;2022-09-11T12:43:53;13.80;;;8.88;;
29240;SDS011;16268;49.880;8.648;2022-09-11T12:48:47;10.73;;;7.50;;
29240;SDS011;16268;49.880;8.648;2022-09-11T12:51:21;11.93;;;8.05;;
29240;SDS011;16268;49.880;8.648;2022-09-11T12:53:51;10.77;;;7.20;;
29240;SDS011;16268;49.880;8.648;2022-09-11T12:56:21;9.20;;;6.38;;
29240;SDS011;16268;49.880;8.648;2022-09-11T12:58:54;9.17;;;5.90;;
29240;SDS011;16268;49.880;8.648;2022-09-11T13:01:32;8.85;;;6.05;;
29240;SDS011;16268;49.880;8.648;2022-09-11T13:04:23;8.68;;;5.72;;
29240;SDS011;16268;49.880;8.648;2022-09-11T13:07:02;8.40;;;5.65;;
29240;SDS011;16268;49.880;8.648;2022-09-11T13:09:33;9.60;;;6.32;;
29240;SDS011;16268;49.880;8.648;2022-09-11T13:17:26;9.98;;;5.43;;
29240;SDS011;16268;49.880;8.648;2022-09-11T13:22:32;8.05;;;5.57;;
29240;SDS011;16268;49.880;8.648;2022-09-11T13:27:44;6.45;;;4.78;;
29240;SDS011;16268;49.880;8.648;2022-09-11T13:30:14;8.23;;;4.80;;
29240;SDS011;16268;49.880;8.648;2022-09-11T13:32:43;8.13;;;5.28;;
29240;SDS011;16268;49.880;8.648;2022-09-11T13:35:14;6.60;;;4.63;;
29240;SDS011;16268;49.880;8.648;2022-09-11T13:37:43;7.43;;;4.63;;
29240;SDS011;16268;49.880;8.648;2022-09-11T13:40:21;7.22;;;4.95;;
29240;SDS011;16268;49.880;8.648;2022-09-11T13:42:55;6.80;;;5.18;;
29240;SDS011;16268;49.880;8.648;2022-09-11T13:45:22;7.60;;;5.18;;
29240;SDS011;16268;49.880;8.648;2022-09-11T13:47:48;6.88;;;4.47;;
29240;SDS011;16268;49.880;8.648;2022-09-11T13:50:14;7.43;;;5.07;;
29240;SDS011;16268;49.880;8.648;2022-09-11T13:52:42;8.02;;;5.68;;
29240;SDS011;16268;49.880;8.648;2022-09-11T13:55:20;7.50;;;5.07;;
29240;SDS011;16268;49.880;8.648;2022-09-11T13:57:53;6.90;;;5.10;;
29240;SDS011;16268;49.880;8.648;2022-09-11T14:00:39;6.15;;;4.60;;
29240;SDS011;16268;49.880;8.648;2022-09-11T14:03:15;9.68;;;6.22;;
29240;SDS011;16268;49.880;8.648;2022-09-11T14:05:59;7.45;;;5.45;;
29240;SDS011;16268;49.880;8.648;2022-09-11T14:08:31;9.00;;;5.15;;
29240;SDS011;16268;49.880;8.648;2022-09-11T14:11:00;7.50;;;5.18;;
29240;SDS011;16268;49.880;8.648;2022-09-11T14:18:46;10.50;;;5.32;;
29240;SDS011;16268;49.880;8.648;2022-09-11T14:21:20;7.28;;;5.60;;
29240;SDS011;16268;49.880;8.648;2022-09-11T14:23:51;9.52;;;6.50;;
29240;SDS011;16268;49.880;8.648;2022-09-11T14:26:22;8.43;;;5.55;;
29240;SDS011;16268;49.880;8.648;2022-09-11T14:34:51;8.38;;;5.60;;
29240;SDS011;16268;49.880;8.648;2022-09-11T14:37:16;7.05;;;5.22;;
29240;SDS011;16268;49.880;8.648;2022-09-11T14:39:44;7.45;;;5.45;;
29240;SDS011;16268;49.880;8.648;2022-09-11T14:42:18;7.78;;;5.60;;
29240;SDS011;16268;49.880;8.648;2022-09-11T14:44:47;9.40;;;6.55;;
29240;SDS011;16268;49.880;8.648;2022-09-11T14:47:17;8.52;;;5.93;;
29240;SDS011;16268;49.880;8.648;2022-09-11T14:49:47;7.35;;;5.50;;
29240;SDS011;16268;49.880;8.648;2022-09-11T14:52:20;8.13;;;5.45;;
29240;SDS011;16268;49.880;8.648;2022-09-11T14:54:48;7.15;;;5.75;;
29240;SDS011;16268;49.880;8.648;2022-09-11T14:57:15;11.23;;;6.22;;
29240;SDS011;16268;49.880;8.648;2022-09-11T14:59:42;7.55;;;5.80;;
29240;SDS011;16268;49.880;8.648;2022-09-11T15:02:11;7.60;;;5.72;;
29240;SDS011;16268;49.880;8.648;2022-09-11T15:04:42;8.82;;;5.68;;
29240;SDS011;16268;49.880;8.648;2022-09-11T15:07:11;6.63;;;4.80;;
29240;SDS011;16268;49.880;8.648;2022-09-11T15:09:38;7.97;;;5.10;;
29240;SDS011;16268;49.880;8.648;2022-09-11T15:12:04;6.95;;;5.20;;
29240;SDS011;16268;49.880;8.648;2022-09-11T15:14:31;7.20;;;5.15;;
29240;SDS011;16268;49.880;8.648;2022-09-11T15:16:57;8.40;;;5.78;;
29240;SDS011;16268;49.880;8.648;2022-09-11T15:19:27;7.70;;;5.07;;
29240;SDS011;16268;49.880;8.648;2022-09-11T15:21:53;9.13;;;6.00;;
29240;SDS011;16268;49.880;8.648;2022-09-11T15:24:20;6.60;;;5.10;;
29240;SDS011;16268;49.880;8.648;2022-09-11T15:26:50;5.95;;;4.30;;
29240;SDS011;16268;49.880;8.648;2022-09-11T15:29:17;7.05;;;4.70;;
29240;SDS011;16268;49.880;8.648;2022-09-11T15:31:42;6.50;;;4.47;;
29240;SDS011;16268;49.880;8.648;2022-09-11T15:34:08;6.90;;;4.72;;
29240;SDS011;16268;49.880;8.648;2022-09-11T15:36:35;6.75;;;4.47;;
29240;SDS011;16268;49.880;8.648;2022-09-11T15:39:05;6.30;;;4.32;;
29240;SDS011;16268;49.880;8.648;2022-09-11T15:41:32;5.88;;;4.15;;
29240;SDS011;16268;49.880;8.648;2022-09-11T15:43:58;5.45;;;4.13;;
29240;SDS011;16268;49.880;8.648;2022-09-11T15:46:24;5.75;;;4.07;;
29240;SDS011;16268;49.880;8.648;2022-09-11T15:48:50;6.03;;;4.03;;
29240;SDS011;16268;49.880;8.648;2022-09-11T15:51:17;7.43;;;4.28;;
29240;SDS011;16268;49.880;8.648;2022-09-11T15:53:44;6.65;;;4.13;;
29240;SDS011;16268;49.880;8.648;2022-09-11T15:56:10;6.07;;;4.28;;
29240;SDS011;16268;49.880;8.648;2022-09-11T15:58:39;6.32;;;4.25;;
29240;SDS011;16268;49.880;8.648;2022-09-11T16:01:06;5.68;;;3.88;;
29240;SDS011;16268;49.880;8.648;2022-09-11T16:03:41;5.43;;;3.75;;
29240;SDS011;16268;49.880;8.648;2022-09-11T16:06:07;6.65;;;4.30;;
29240;SDS011;16268;49.880;8.648;2022-09-11T16:08:32;7.60;;;4.85;;
29240;SDS011;16268;49.880;8.648;2022-09-11T16:11:02;5.60;;;4.03;;
29240;SDS011;16268;49.880;8.648;2022-09-11T16:13:28;5.43;;;4.00;;
29240;SDS011;16268;49.880;8.648;2022-09-11T16:16:02;5.85;;;4.22;;
29240;SDS011;16268;49.880;8.648;2022-09-11T16:18:28;5.82;;;4.00;;
29240;SDS011;16268;49.880;8.648;2022-09-11T16:20:55;7.43;;;4.60;;
29240;SDS011;16268;49.880;8.648;2022-09-11T16:23:22;5.55;;;3.95;;
29240;SDS011;16268;49.880;8.648;2022-09-11T16:25:49;6.43;;;3.92;;
29240;SDS011;16268;49.880;8.648;2022-09-11T16:28:15;6.00;;;3.78;;
29240;SDS011;16268;49.880;8.648;2022-09-11T16:30:41;6.95;;;4.40;;
29240;SDS011;16268;49.880;8.648;2022-09-11T16:33:08;6.53;;;4.22;;
29240;SDS011;16268;49.880;8.648;2022-09-11T16:35:34;6.07;;;3.80;;
29240;SDS011;16268;49.880;8.648;2022-09-11T16:38:01;8.68;;;4.20;;
29240;SDS011;16268;49.880;8.648;2022-09-11T16:40:27;5.90;;;4.32;;
29240;SDS011;16268;49.880;8.648;2022-09-11T16:42:53;6.40;;;4.05;;
29240;SDS011;16268;49.880;8.648;2022-09-11T16:45:19;6.72;;;4.70;;
29240;SDS011;16268;49.880;8.648;2022-09-11T16:47:44;6.95;;;5.00;;
29240;SDS011;16268;49.880;8.648;2022-09-11T16:50:10;9.68;;;5.75;;
29240;SDS011;16268;49.880;8.648;2022-09-11T16:52:37;6.82;;;4.15;;
29240;SDS011;16268;49.880;8.648;2022-09-11T16:55:03;6.35;;;3.72;;
29240;SDS011;16268;49.880;8.648;2022-09-11T16:57:30;6.15;;;4.05;;
29240;SDS011;16268;49.880;8.648;2022-09-11T16:59:57;7.18;;;4.57;;
29240;SDS011;16268;49.880;8.648;2022-09-11T17:02:23;6.22;;;4.15;;
29240;SDS011;16268;49.880;8.648;2022-09-11T17:04:48;5.97;;;4.20;;
29240;SDS011;16268;49.880;8.648;2022-09-11T17:07:14;5.47;;;4.03;;